Main page
METAR-TAF:

METAR-TAF

Airports :

Kärdla Airport

Kärdla, Estonia

latitude: 58-59N, longitude: 022-49E, elevation: 5 m

Current weather observation

The report was made 59 minutes ago, at 03:50 UTC
Wind 3 kt from the West/Northwest, varying between West and North
Temperature 10°C
Humidity 87%
Pressure 1031 hPa
Visibility 10 km or more
no clouds below 1500 m and no cumulonimbus

METAR: EEKA 260350Z 30003KT 270V350 CAVOK 10/08 Q1031

Time: 07:49 (04:49 UTC)

Forecast

The report was made 1 hour and 49 minutes ago, at 03:00 UTC
Forecast valid from 26 at 04 UTC to 26 at 10 UTC
Wind 5 kt from the West
Visibility 10 km or more
no clouds below 1500 m and no cumulonimbus
Probability 30% :
Temporary
from 26 at 04 UTC to 26 at 05 UTC
Visibility: 1200 m
Broken clouds at a height of 200 ft
mist, patches of fog
Becoming
from 26 at 05 UTC to 26 at 07 UTC
Wind 10 kt from the North/Northwest

TAF: EEKA 260300Z 2604/2610 27005KT CAVOK PROB30 TEMPO 2604/2605 1200 BR BCFG BKN002 BECMG 2605/2607 33010KT

Weather observations and forecasts of more than 4000 airports (METAR and TAF reports).

The available stations are represented by yellow and red dots on the map.

Hover mouse over dot to see the name of the station.

Then click to see weather observations and forecasts.

To change the map : click on the green buttons with a black cross to zoom in, on the green button with a dash to zoom out, or on the green arrows for adjacent maps.


METAR-TAF: